createdAt,value
2023-11-14T00:02:25.101Z,60.50
2023-11-14T00:04:51.462Z,60.53
2023-11-14T00:07:17.821Z,60.32
2023-11-14T00:09:46.696Z,60.28
2023-11-14T00:12:15.460Z,60.46
2023-11-14T00:14:41.727Z,60.35
2023-11-14T00:17:11.485Z,60.26
2023-11-14T00:19:37.773Z,60.38
2023-11-14T00:22:04.248Z,60.56
2023-11-14T00:24:30.637Z,60.02
2023-11-14T00:27:02.128Z,60.17
2023-11-14T00:29:28.686Z,60.20
2023-11-14T00:31:55.136Z,60.11
2023-11-14T00:34:21.482Z,60.04
2023-11-14T00:36:47.807Z,60.07
2023-11-14T00:39:14.090Z,60.21
2023-11-14T00:41:40.358Z,60.30
2023-11-14T00:44:06.707Z,60.09
2023-11-14T00:46:33.097Z,59.84
2023-11-14T00:48:59.574Z,60.18
2023-11-14T00:51:25.898Z,60.31
2023-11-14T00:53:52.840Z,60.02
2023-11-14T00:56:19.351Z,60.22
2023-11-14T00:58:45.940Z,60.33
2023-11-14T01:01:12.384Z,59.96
2023-11-14T01:03:38.785Z,60.36
2023-11-14T01:06:05.097Z,60.27
2023-11-14T01:08:31.458Z,60.02
2023-11-14T01:10:57.761Z,60.42
2023-11-14T01:13:24.161Z,60.11
2023-11-14T01:15:50.557Z,60.22
2023-11-14T01:18:16.808Z,60.32
2023-11-14T01:20:43.216Z,60.02
2023-11-14T01:23:09.567Z,59.93
2023-11-14T01:25:35.994Z,60.25
2023-11-14T01:28:02.301Z,60.12
2023-11-14T01:30:28.632Z,60.37
2023-11-14T01:32:54.941Z,60.04
2023-11-14T01:35:22.079Z,60.10
2023-11-14T01:37:48.378Z,60.00
2023-11-14T01:40:14.700Z,60.16
2023-11-14T01:42:41.076Z,60.01
2023-11-14T01:45:07.462Z,59.91
2023-11-14T01:47:33.859Z,59.88
2023-11-14T01:50:00.346Z,59.95
2023-11-14T01:52:26.843Z,59.93
2023-11-14T01:54:53.086Z,60.27
2023-11-14T01:57:19.478Z,60.09
2023-11-14T01:59:45.924Z,60.21
2023-11-14T02:02:12.258Z,60.24
2023-11-14T02:04:40.530Z,60.15
2023-11-14T02:07:06.876Z,60.19
2023-11-14T02:09:33.162Z,60.03
2023-11-14T02:11:59.444Z,59.73
2023-11-14T02:14:25.695Z,59.80
2023-11-14T02:16:52.069Z,60.10
2023-11-14T02:19:18.444Z,60.21
2023-11-14T02:21:44.987Z,60.21
2023-11-14T02:24:11.250Z,60.16
2023-11-14T02:26:37.585Z,59.98
2023-11-14T02:29:03.867Z,60.22
2023-11-14T02:31:30.280Z,60.26
2023-11-14T02:33:56.572Z,59.94
2023-11-14T02:36:22.985Z,59.90
2023-11-14T02:38:50.189Z,60.23
2023-11-14T02:41:16.582Z,59.92
2023-11-14T02:43:42.949Z,59.99
2023-11-14T02:46:09.314Z,60.19
2023-11-14T02:48:35.603Z,59.95
2023-11-14T02:51:01.864Z,60.10
2023-11-14T02:53:28.172Z,60.28
2023-11-14T02:55:54.768Z,59.93
2023-11-14T02:58:21.176Z,60.19
2023-11-14T03:00:47.801Z,60.08
2023-11-14T03:03:23.844Z,60.27
2023-11-14T03:05:50.132Z,59.78
2023-11-14T03:08:16.478Z,60.03
2023-11-14T03:10:42.874Z,60.11
2023-11-14T03:13:09.200Z,60.12
2023-11-14T03:15:35.462Z,60.00
2023-11-14T03:18:01.777Z,60.19
2023-11-14T03:20:33.615Z,59.92
2023-11-14T03:23:11.036Z,59.78
2023-11-14T03:25:37.330Z,59.90
2023-11-14T03:28:03.757Z,60.20
2023-11-14T03:30:30.070Z,59.88
2023-11-14T03:32:56.654Z,59.87
2023-11-14T03:35:22.991Z,60.20
2023-11-14T03:37:49.268Z,59.84
2023-11-14T03:40:15.526Z,60.03
2023-11-14T03:42:41.809Z,59.99
2023-11-14T03:45:09.362Z,60.09
2023-11-14T03:47:35.681Z,60.15
2023-11-14T03:50:02.090Z,59.99
2023-11-14T03:52:28.362Z,60.29
2023-11-14T03:54:54.696Z,60.25
2023-11-14T03:57:21.050Z,59.96
2023-11-14T03:59:47.364Z,60.05
2023-11-14T04:02:13.687Z,59.91
2023-11-14T04:04:44.461Z,60.29
2023-11-14T04:07:10.740Z,60.13
2023-11-14T04:09:37.051Z,60.06
2023-11-14T04:12:03.291Z,60.12
2023-11-14T04:14:29.579Z,60.13
2023-11-14T04:16:55.963Z,60.15
2023-11-14T04:19:22.248Z,60.17
2023-11-14T04:21:48.584Z,60.09
2023-11-14T04:24:15.044Z,59.96
2023-11-14T04:26:41.364Z,59.87
2023-11-14T04:29:07.965Z,60.05
2023-11-14T04:31:34.410Z,60.10
2023-11-14T04:34:00.691Z,60.15
2023-11-14T04:36:26.956Z,59.89
2023-11-14T04:38:53.203Z,59.90
2023-11-14T04:41:19.507Z,60.05
2023-11-14T04:43:55.842Z,59.93
2023-11-14T04:46:32.162Z,60.29
2023-11-14T04:49:03.576Z,59.84
2023-11-14T04:51:29.898Z,60.20
2023-11-14T04:53:56.184Z,60.21
2023-11-14T04:56:22.476Z,60.25
2023-11-14T04:58:48.757Z,60.27
2023-11-14T05:01:15.096Z,60.13
2023-11-14T05:03:41.463Z,60.39
2023-11-14T05:06:07.782Z,60.15
2023-11-14T05:08:34.064Z,60.26
2023-11-14T05:11:00.468Z,60.00
2023-11-14T05:13:26.788Z,60.21
2023-11-14T05:15:53.127Z,59.92
2023-11-14T05:18:19.551Z,60.11
2023-11-14T05:20:45.931Z,59.96
2023-11-14T05:23:12.279Z,60.26
2023-11-14T05:25:38.609Z,60.04
2023-11-14T05:28:04.938Z,60.19
2023-11-14T05:30:31.237Z,60.47
2023-11-14T05:32:57.614Z,59.98
2023-11-14T05:35:23.994Z,60.12
2023-11-14T05:37:50.266Z,60.00
2023-11-14T05:40:16.580Z,59.91
2023-11-14T05:42:42.882Z,59.89
2023-11-14T05:45:09.141Z,60.20
2023-11-14T05:47:35.442Z,60.23
2023-11-14T05:50:01.714Z,60.13
2023-11-14T05:52:28.234Z,59.99
2023-11-14T05:54:54.705Z,60.04
2023-11-14T05:57:21.167Z,60.35
2023-11-14T05:59:47.425Z,60.20
2023-11-14T06:02:13.714Z,60.08
2023-11-14T06:04:40.112Z,60.02
2023-11-14T06:07:06.556Z,60.06
2023-11-14T06:09:32.844Z,60.25
2023-11-14T06:11:59.351Z,60.13
2023-11-14T06:14:25.640Z,60.19
2023-11-14T06:16:52.014Z,60.29
2023-11-14T06:19:24.050Z,60.07
2023-11-14T06:21:50.366Z,60.33
2023-11-14T06:24:16.666Z,60.31
2023-11-14T06:26:42.949Z,60.06
2023-11-14T06:29:09.257Z,60.29
2023-11-14T06:31:35.585Z,60.42
2023-11-14T06:34:01.888Z,60.00
2023-11-14T06:36:28.281Z,60.10
2023-11-14T06:38:54.598Z,59.89
2023-11-14T06:41:20.892Z,60.41
2023-11-14T06:43:47.444Z,60.20
2023-11-14T06:46:13.935Z,60.11
2023-11-14T06:48:40.261Z,60.12
2023-11-14T06:51:06.518Z,60.04
2023-11-14T06:53:32.779Z,60.16
2023-11-14T06:55:59.324Z,60.41
2023-11-14T06:58:25.590Z,60.25
2023-11-14T07:00:51.829Z,60.30
2023-11-14T07:03:18.222Z,59.97
2023-11-14T07:05:53.250Z,60.09
2023-11-14T07:08:19.947Z,59.83
2023-11-14T07:10:46.256Z,60.30
2023-11-14T07:13:12.761Z,59.78
2023-11-14T07:15:39.281Z,60.29
2023-11-14T07:18:05.596Z,60.15
2023-11-14T07:20:32.102Z,60.05
2023-11-14T07:22:58.451Z,60.00
2023-11-14T07:25:25.087Z,60.10
2023-11-14T07:27:51.453Z,59.97
2023-11-14T07:30:17.835Z,60.22
2023-11-14T07:32:44.271Z,60.17
2023-11-14T07:35:10.632Z,60.33
2023-11-14T07:37:36.910Z,60.25
2023-11-14T07:40:03.214Z,60.59
2023-11-14T07:42:29.475Z,60.22
2023-11-14T07:44:55.774Z,60.28
2023-11-14T07:47:22.281Z,60.35
2023-11-14T07:49:48.714Z,60.66
2023-11-14T07:52:15.552Z,60.51
2023-11-14T07:54:41.841Z,60.44
2023-11-14T07:57:15.288Z,60.34
2023-11-14T07:59:41.558Z,60.47
2023-11-14T08:02:07.973Z,60.41
2023-11-14T08:04:34.983Z,60.67
2023-11-14T08:07:08.617Z,60.81
2023-11-14T08:09:34.908Z,60.85
2023-11-14T08:12:01.233Z,60.84
2023-11-14T08:14:27.541Z,60.75
2023-11-14T08:16:53.857Z,60.89
2023-11-14T08:19:20.227Z,60.64
2023-11-14T08:21:46.542Z,60.96
2023-11-14T08:24:12.797Z,60.51
2023-11-14T08:26:39.075Z,60.94
2023-11-14T08:29:05.428Z,60.90
2023-11-14T08:31:32.012Z,60.50
2023-11-14T08:33:58.346Z,60.79
2023-11-14T08:36:24.666Z,60.92
2023-11-14T08:38:50.997Z,61.01
2023-11-14T08:41:17.397Z,60.80
2023-11-14T08:43:43.781Z,60.62
2023-11-14T08:46:10.109Z,60.52
2023-11-14T08:48:36.492Z,60.83
2023-11-14T08:51:02.778Z,60.87
2023-11-14T08:53:29.044Z,61.03
2023-11-14T08:55:55.324Z,60.81
2023-11-14T08:58:21.619Z,61.23
2023-11-14T09:00:47.947Z,61.03
2023-11-14T09:03:14.350Z,61.09
2023-11-14T09:05:40.646Z,60.84
2023-11-14T09:08:06.979Z,60.87
2023-11-14T09:10:33.287Z,60.98
2023-11-14T09:12:59.564Z,60.94
2023-11-14T09:15:25.801Z,61.02
2023-11-14T09:17:55.501Z,60.79
2023-11-14T09:20:24.008Z,61.09
2023-11-14T09:22:50.526Z,61.17
2023-11-14T09:25:17.582Z,60.94
2023-11-14T09:27:44.272Z,60.84
2023-11-14T09:30:10.551Z,61.33
2023-11-14T09:32:36.915Z,61.19
2023-11-14T09:35:07.623Z,61.44
2023-11-14T09:37:34.085Z,61.35
2023-11-14T09:40:00.402Z,61.45
2023-11-14T09:42:27.013Z,61.56
2023-11-14T09:44:53.311Z,61.48
2023-11-14T09:47:19.611Z,61.22
2023-11-14T09:49:45.950Z,61.42
2023-11-14T09:52:12.358Z,61.94
2023-11-14T09:54:40.160Z,61.63
2023-11-14T09:57:07.153Z,61.61
2023-11-14T09:59:33.424Z,61.73
2023-11-14T10:01:59.718Z,61.89
2023-11-14T10:04:26.126Z,61.78
2023-11-14T10:06:52.499Z,61.78
2023-11-14T10:09:18.850Z,62.17
2023-11-14T10:12:11.263Z,61.83
2023-11-14T10:14:31.416Z,61.98
2023-11-14T10:17:01.824Z,62.02
2023-11-14T10:19:35.790Z,61.95
2023-11-14T10:22:02.047Z,62.14
2023-11-14T10:24:28.505Z,62.16
2023-11-14T10:26:55.191Z,62.39
2023-11-14T10:29:21.593Z,62.34
2023-11-14T10:31:48.010Z,62.05
2023-11-14T10:34:14.456Z,62.08
2023-11-14T10:36:40.810Z,62.46
2023-11-14T10:39:07.237Z,62.62
2023-11-14T10:41:33.509Z,62.14
2023-11-14T10:43:59.861Z,62.32
2023-11-14T10:46:26.367Z,62.38
2023-11-14T10:48:53.484Z,62.45
2023-11-14T10:51:19.769Z,62.52
2023-11-14T10:53:46.151Z,62.55
2023-11-14T10:56:12.587Z,62.70
2023-11-14T10:58:38.942Z,62.25
2023-11-14T11:01:05.215Z,62.39
2023-11-14T11:03:31.510Z,62.61
2023-11-14T11:05:57.879Z,62.81
2023-11-14T11:08:24.157Z,62.86
2023-11-14T11:10:50.608Z,62.93
2023-11-14T11:13:21.423Z,62.76
2023-11-14T11:15:47.716Z,63.00
2023-11-14T11:18:14.121Z,62.95
2023-11-14T11:20:40.484Z,62.74
2023-11-14T11:23:07.018Z,62.85
2023-11-14T11:25:33.494Z,62.97
2023-11-14T11:27:59.756Z,62.85
2023-11-14T11:30:26.008Z,62.78
2023-11-14T11:32:52.290Z,63.11
2023-11-14T11:35:19.826Z,63.14
2023-11-14T11:37:46.780Z,62.89
2023-11-14T11:40:13.080Z,63.15
2023-11-14T11:42:39.577Z,62.83
2023-11-14T11:45:05.842Z,63.11
2023-11-14T11:47:35.841Z,62.79
2023-11-14T11:50:02.191Z,62.71
2023-11-14T11:52:28.544Z,62.76
2023-11-14T11:54:54.787Z,62.82
2023-11-14T11:57:21.171Z,62.88
2023-11-14T11:59:47.512Z,62.78
2023-11-14T12:02:13.844Z,63.07
2023-11-14T12:04:40.510Z,62.96
2023-11-14T12:07:06.949Z,62.86
2023-11-14T12:09:35.155Z,62.63
2023-11-14T12:12:01.432Z,62.72
2023-11-14T12:14:27.799Z,62.67
2023-11-14T12:16:54.100Z,62.78
2023-11-14T12:19:20.417Z,63.06
2023-11-14T12:21:46.649Z,62.69
2023-11-14T12:24:12.983Z,62.69
2023-11-14T12:26:39.218Z,62.76
2023-11-14T12:29:05.616Z,63.01
2023-11-14T12:31:33.071Z,62.52
2023-11-14T12:33:59.542Z,62.76
2023-11-14T12:36:25.858Z,63.06
2023-11-14T12:38:52.820Z,62.55
2023-11-14T12:41:19.482Z,62.90
2023-11-14T12:43:48.324Z,62.96
2023-11-14T12:46:17.543Z,63.04
2023-11-14T12:48:43.805Z,63.28
2023-11-14T12:51:10.064Z,63.22
2023-11-14T12:53:36.367Z,63.41
2023-11-14T12:56:02.742Z,62.92
2023-11-14T12:58:29.040Z,62.77
2023-11-14T13:00:55.430Z,62.97
2023-11-14T13:03:21.769Z,63.25
2023-11-14T13:05:58.031Z,63.10
2023-11-14T13:08:24.308Z,62.97
2023-11-14T13:10:50.651Z,62.81
2023-11-14T13:13:16.975Z,63.40
2023-11-14T13:15:43.411Z,63.18
2023-11-14T13:18:09.682Z,63.01
2023-11-14T13:20:36.001Z,63.40
2023-11-14T13:23:02.349Z,63.35
2023-11-14T13:25:28.730Z,63.22
2023-11-14T13:27:55.027Z,63.35
2023-11-14T13:30:22.119Z,63.12
2023-11-14T13:32:49.453Z,63.77
2023-11-14T13:35:15.911Z,64.34
2023-11-14T13:37:42.204Z,64.34
2023-11-14T13:40:08.720Z,64.10
2023-11-14T13:42:35.030Z,63.89
2023-11-14T13:45:01.356Z,64.01
2023-11-14T13:47:27.716Z,63.70
2023-11-14T13:49:54.091Z,64.03
2023-11-14T13:52:20.604Z,64.18
2023-11-14T13:54:46.874Z,63.99
2023-11-14T13:57:13.147Z,63.89
2023-11-14T13:59:39.585Z,63.97
2023-11-14T14:02:06.167Z,64.02
2023-11-14T14:04:34.805Z,64.10
2023-11-14T14:07:01.328Z,63.75
2023-11-14T14:09:27.686Z,63.90
2023-11-14T14:11:58.787Z,63.63
2023-11-14T14:14:25.170Z,63.45
2023-11-14T14:16:51.693Z,63.69
2023-11-14T14:19:18.024Z,63.67
2023-11-14T14:21:44.441Z,63.50
2023-11-14T14:24:20.693Z,63.48
2023-11-14T14:26:47.027Z,63.62
2023-11-14T14:29:15.726Z,63.58
2023-11-14T14:31:42.047Z,63.35
2023-11-14T14:34:09.536Z,63.29
2023-11-14T14:36:36.242Z,63.05
2023-11-14T14:39:02.499Z,63.00
2023-11-14T14:41:29.029Z,63.14
2023-11-14T14:43:55.394Z,63.28
2023-11-14T14:46:21.748Z,63.22
2023-11-14T14:48:48.209Z,63.07
2023-11-14T14:51:14.454Z,63.33
2023-11-14T14:53:40.808Z,63.18
2023-11-14T14:56:07.220Z,63.22
2023-11-14T14:58:33.500Z,63.29
2023-11-14T15:00:59.772Z,62.93
2023-11-14T15:03:26.128Z,63.30
2023-11-14T15:05:52.446Z,63.24
2023-11-14T15:08:18.937Z,62.97
2023-11-14T15:10:45.370Z,63.50
2023-11-14T15:13:18.176Z,63.35
2023-11-14T15:15:44.448Z,63.47
2023-11-14T15:18:10.860Z,63.36
2023-11-14T15:20:37.233Z,63.09
2023-11-14T15:23:03.589Z,62.97
2023-11-14T15:25:29.885Z,63.29
2023-11-14T15:28:02.787Z,63.34
2023-11-14T15:30:29.144Z,63.14
2023-11-14T15:32:55.530Z,62.87
2023-11-14T15:35:22.009Z,62.91
2023-11-14T15:37:49.233Z,63.08
2023-11-14T15:40:16.073Z,62.85
2023-11-14T15:42:42.397Z,62.99
2023-11-14T15:45:08.763Z,63.10
2023-11-14T15:47:35.126Z,63.15
2023-11-14T15:50:01.728Z,62.88
2023-11-14T15:52:28.241Z,62.75
2023-11-14T15:54:57.858Z,63.08
2023-11-14T15:57:25.586Z,62.99
2023-11-14T15:59:51.897Z,62.93
2023-11-14T16:02:18.684Z,62.89
2023-11-14T16:04:45.086Z,62.80
2023-11-14T16:07:11.376Z,62.90
2023-11-14T16:09:37.684Z,62.83
2023-11-14T16:12:03.990Z,62.77
2023-11-14T16:14:30.392Z,63.06
2023-11-14T16:16:56.989Z,62.94
2023-11-14T16:19:23.328Z,62.59
2023-11-14T16:21:49.614Z,62.74
2023-11-14T16:24:18.068Z,62.70
2023-11-14T16:26:44.490Z,62.93
2023-11-14T16:29:20.804Z,62.59
2023-11-14T16:31:57.251Z,62.60
2023-11-14T16:34:23.881Z,62.73
2023-11-14T16:36:50.187Z,62.76
2023-11-14T16:39:26.439Z,62.87
2023-11-14T16:41:52.872Z,62.83
2023-11-14T16:44:19.316Z,62.79
2023-11-14T16:46:55.649Z,62.63
2023-11-14T16:49:24.389Z,62.83
2023-11-14T16:51:50.692Z,62.83
2023-11-14T16:54:16.960Z,62.82
2023-11-14T16:56:43.221Z,62.97
2023-11-14T16:59:09.491Z,62.55
2023-11-14T17:01:35.820Z,62.84
2023-11-14T17:04:02.476Z,62.41
2023-11-14T17:06:28.835Z,62.61
2023-11-14T17:08:55.198Z,62.79
2023-11-14T17:11:21.501Z,62.81
2023-11-14T17:13:47.961Z,62.89
2023-11-14T17:16:14.604Z,62.54
2023-11-14T17:18:41.067Z,62.58
2023-11-14T17:21:07.479Z,62.57
2023-11-14T17:23:33.969Z,62.80
2023-11-14T17:26:00.428Z,62.81
2023-11-14T17:28:26.911Z,62.58
2023-11-14T17:30:53.390Z,62.77
2023-11-14T17:33:19.753Z,62.50
2023-11-14T17:35:46.278Z,63.12
2023-11-14T17:38:13.719Z,63.81
2023-11-14T17:40:40.117Z,64.73
2023-11-14T17:43:06.364Z,65.14
2023-11-14T17:45:32.764Z,65.63
2023-11-14T17:47:59.181Z,66.15
2023-11-14T17:50:25.595Z,66.30
2023-11-14T17:52:51.918Z,66.80
2023-11-14T17:55:18.289Z,67.02
2023-11-14T17:57:44.801Z,67.26
2023-11-14T18:00:11.268Z,67.54
2023-11-14T18:02:37.613Z,67.01
2023-11-14T18:05:04.494Z,67.26
2023-11-14T18:07:30.955Z,67.23
2023-11-14T18:09:57.202Z,66.60
2023-11-14T18:12:23.464Z,66.50
2023-11-14T18:14:49.782Z,66.48
2023-11-14T18:17:16.174Z,65.61
2023-11-14T18:19:42.484Z,65.79
2023-11-14T18:22:08.843Z,65.70
2023-11-14T18:24:35.114Z,65.98
2023-11-14T18:27:01.524Z,65.79
2023-11-14T18:29:27.820Z,65.96
2023-11-14T18:31:54.084Z,65.90
2023-11-14T18:34:20.637Z,65.90
2023-11-14T18:36:46.930Z,65.88
2023-11-14T18:39:13.208Z,65.30
2023-11-14T18:41:39.459Z,66.00
2023-11-14T18:44:05.794Z,66.18
2023-11-14T18:46:32.146Z,66.11
2023-11-14T18:48:58.481Z,66.14
2023-11-14T18:51:24.799Z,66.10
2023-11-14T18:53:51.044Z,66.25
2023-11-14T18:56:17.346Z,66.22
2023-11-14T18:58:43.652Z,66.61
2023-11-14T19:01:09.987Z,66.53
2023-11-14T19:03:38.339Z,66.56
2023-11-14T19:06:04.783Z,66.43
2023-11-14T19:08:31.097Z,66.62
2023-11-14T19:10:57.427Z,66.33
2023-11-14T19:13:23.830Z,66.51
2023-11-14T19:15:50.214Z,66.33
2023-11-14T19:18:19.504Z,66.56
2023-11-14T19:21:09.611Z,66.26
2023-11-14T19:23:42.337Z,66.60
2023-11-14T19:26:10.960Z,66.16
2023-11-14T19:28:37.264Z,66.34
2023-11-14T19:31:03.646Z,66.24
2023-11-14T19:33:29.983Z,66.36
2023-11-14T19:35:56.293Z,66.14
2023-11-14T19:38:22.645Z,66.96
2023-11-14T19:40:48.911Z,67.90
2023-11-14T19:43:15.330Z,67.73
2023-11-14T19:45:41.660Z,67.98
2023-11-14T19:48:07.956Z,67.94
2023-11-14T19:50:34.240Z,68.17
2023-11-14T19:53:00.509Z,68.36
2023-11-14T19:55:27.040Z,67.94
2023-11-14T19:57:53.355Z,67.65
2023-11-14T20:00:19.652Z,67.36
2023-11-14T20:02:48.458Z,67.78
2023-11-14T20:05:14.775Z,67.82
2023-11-14T20:07:41.141Z,67.98
2023-11-14T20:10:07.568Z,67.58
2023-11-14T20:12:33.820Z,67.53
2023-11-14T20:15:00.053Z,67.54
2023-11-14T20:17:35.947Z,67.44
2023-11-14T20:20:02.298Z,67.69
2023-11-14T20:22:28.588Z,67.57
2023-11-14T20:24:54.904Z,67.35
2023-11-14T20:27:21.165Z,67.37
2023-11-14T20:29:47.561Z,67.26
2023-11-14T20:32:13.852Z,67.36
2023-11-14T20:34:40.091Z,67.26
2023-11-14T20:37:06.596Z,66.83
2023-11-14T20:39:35.017Z,67.18
2023-11-14T20:42:02.703Z,67.33
2023-11-14T20:44:29.078Z,67.00
2023-11-14T20:46:55.696Z,66.59
2023-11-14T20:49:22.193Z,66.75
2023-11-14T20:51:48.527Z,66.88
2023-11-14T20:54:14.809Z,66.54
2023-11-14T20:56:41.229Z,66.64
2023-11-14T20:59:07.840Z,66.39
2023-11-14T21:01:34.386Z,66.77
2023-11-14T21:04:00.744Z,66.48
2023-11-14T21:06:37.087Z,66.00
2023-11-14T21:09:03.355Z,66.22
2023-11-14T21:11:29.703Z,66.08
2023-11-14T21:13:56.177Z,66.15
2023-11-14T21:16:22.636Z,66.03
2023-11-14T21:18:49.178Z,66.05
2023-11-14T21:21:15.506Z,66.21
2023-11-14T21:23:41.983Z,66.02
2023-11-14T21:26:12.622Z,66.25
2023-11-14T21:28:39.030Z,65.99
2023-11-14T21:31:05.728Z,65.57
2023-11-14T21:33:32.118Z,65.99
2023-11-14T21:35:58.400Z,66.17
2023-11-14T21:38:24.687Z,66.09
2023-11-14T21:40:51.012Z,66.60
2023-11-14T21:43:17.304Z,66.62
2023-11-14T21:45:43.562Z,66.54
2023-11-14T21:48:09.935Z,66.66
2023-11-14T21:50:36.285Z,66.31
2023-11-14T21:53:02.600Z,66.33
2023-11-14T21:55:28.871Z,66.21
2023-11-14T21:57:55.195Z,66.26
2023-11-14T22:00:21.448Z,66.23
2023-11-14T22:02:47.828Z,66.36
2023-11-14T22:05:14.402Z,66.31
2023-11-14T22:07:40.776Z,66.44
2023-11-14T22:10:07.072Z,66.47
2023-11-14T22:12:33.335Z,66.33
2023-11-14T22:14:59.617Z,66.17
2023-11-14T22:17:26.062Z,66.12
2023-11-14T22:19:52.598Z,66.27
2023-11-14T22:22:18.868Z,66.59
2023-11-14T22:24:45.218Z,66.31
2023-11-14T22:27:11.456Z,66.50
2023-11-14T22:29:37.870Z,66.20
2023-11-14T22:32:04.138Z,66.02
2023-11-14T22:34:32.008Z,66.08
2023-11-14T22:36:58.497Z,66.38
2023-11-14T22:39:24.946Z,66.25
2023-11-14T22:41:51.279Z,66.37
2023-11-14T22:44:17.645Z,65.96
2023-11-14T22:46:43.928Z,65.98
2023-11-14T22:49:10.202Z,66.33
2023-11-14T22:51:36.527Z,66.33
2023-11-14T22:54:12.771Z,66.27
2023-11-14T22:56:39.429Z,66.05
2023-11-14T22:59:05.811Z,66.19
2023-11-14T23:01:32.100Z,66.32
2023-11-14T23:04:00.314Z,66.13
2023-11-14T23:06:26.640Z,65.87
2023-11-14T23:08:53.377Z,66.34
2023-11-14T23:11:19.722Z,65.99
2023-11-14T23:13:46.182Z,65.77
2023-11-14T23:16:12.474Z,66.25
2023-11-14T23:18:38.837Z,65.91
2023-11-14T23:21:05.148Z,65.92
2023-11-14T23:23:31.430Z,66.12
2023-11-14T23:25:57.785Z,66.13
2023-11-14T23:28:24.481Z,65.83
2023-11-14T23:30:50.738Z,65.94
2023-11-14T23:33:17.216Z,65.89
2023-11-14T23:35:43.675Z,65.92
2023-11-14T23:38:10.010Z,66.10
2023-11-14T23:40:36.795Z,65.80
2023-11-14T23:43:03.354Z,66.03
2023-11-14T23:45:30.373Z,65.74
2023-11-14T23:47:56.847Z,66.15
2023-11-14T23:50:23.226Z,66.15
2023-11-14T23:52:49.586Z,65.88
2023-11-14T23:55:15.892Z,66.03
2023-11-14T23:57:42.180Z,66.03
